Chicago, IL

3:56 AM CDT on May 04, 2015 (GMT -0500)
West Loop - Old St. Pats | | Change Station
CLOSE
Current Station
Personal Weather Station
Location: Chicago, IL
Elevation: 548 ft
Nearby Weather Stations

Elev 548 ft 41.88 °N, 87.64 °W | Updated 57 seconds ago

Overcast
Overcast
68.0 °F
Feels Like 68.0 °F
N
5.0
Wind Variable Wind from WSW
Gusts 7.0 mph

Today
High -- | Low -- °F
--% Chance of Precip.
Yesterday
High -- | Low -- °F
Precip. -- in
5:43 AM 7:52 PM
Full, 100% visible
Pressure 29.94 in
Visibility 10.0 miles
Clouds Few 7000 ft
Scattered Clouds 8500 ft
Mostly Cloudy 15000 ft
Mostly Cloudy 25000 ft
Dew Point 53 °F
Humidity 58%
Rainfall 0.00 in
Snow Depth Not available.
UV 0 out of 12
Pollen 10.80 out of 12
Air Quality Not available.
Flu Activity Local Activity
SPECI KMDW 040831Z 25011G24KT 10SM FEW070 SCT085 BKN150 BKN250 19/10 A2994 RMK AO2 RAB07E25 TSB07E25 P0000 T01940100

More Conditions Fewer Conditions

Pressure 29.94 in
Visibility 10.0 miles
Clouds Few 7000 ft
Scattered Clouds 8500 ft
Mostly Cloudy 15000 ft
Mostly Cloudy 25000 ft
Dew Point 53 °F
Humidity 58%
Rainfall 0.00 in
Snow Depth Not available.
UV 0 out of 12
Pollen 10.80 out of 12
Air Quality Not available.
Flu Activity Local Activity
SPECI KMDW 040831Z 25011G24KT 10SM FEW070 SCT085 BKN150 BKN250 19/10 A2994 RMK AO2 RAB07E25 TSB07E25 P0000 T01940100

More Conditions Fewer Conditions

Nepal has a long way to go to dig out and rebuild from a devastating earthquake. We have teamed up with several charities and organizations to make contributing to the relief effort as easy as possible.
How you can help: Portlight Strategies | Red Cross

10-Day Weather Forecast

Almanac

Astronomy

May. 04, 2015 Rise Set
Actual Time
Civil Twilight
Nautical Twilight
Astronomical Twilight
Moon
Length of Visible Light
Length of Day
Tomorrow will be .
, % of the Moon is Illuminated

Today's Extremes

State Highs State Lows

Community

WunderPhotos

Upload Photos

1,818,548 photos uploaded!

WunderBlogs® & News

Nearby

Air Quality

  Air Quality AQ Index Pollutant
Not available.

Snow Depth

Station Depth Elevation

Earthquake Activity

City Distance Mag. Time & Date
Minimum magnitude displayed is 2.5.

Coastal Water Temperatures

Place Temperature

Stations

Nearby Weather Stations

Station Location Temp. Windchill Dew Point Humidity Wind Precip. Elev Updated Type